createdAt,value
2019-03-15T00:04:39.798Z,1.30
2019-03-15T00:09:42.303Z,1.05
2019-03-15T00:14:45.502Z,0.75
2019-03-15T00:19:48.830Z,0.80
2019-03-15T00:24:52.005Z,2.72
2019-03-15T00:29:55.017Z,0.50
2019-03-15T00:34:58.238Z,0.62
2019-03-15T00:40:01.454Z,0.62
2019-03-15T00:45:08.168Z,1.67
2019-03-15T00:50:12.720Z,0.60
2019-03-15T00:55:15.777Z,1.82
2019-03-15T01:00:18.848Z,1.20
2019-03-15T01:05:22.012Z,0.72
2019-03-15T01:10:25.234Z,1.50
2019-03-15T01:15:28.338Z,0.82
2019-03-15T01:20:31.458Z,1.55
2019-03-15T01:25:34.627Z,0.55
2019-03-15T01:30:37.685Z,0.75
2019-03-15T01:35:40.867Z,0.80
2019-03-15T01:40:44.212Z,0.70
2019-03-15T01:45:47.251Z,0.50
2019-03-15T01:50:50.810Z,0.57
2019-03-15T01:55:53.951Z,0.93
2019-03-15T02:00:57.078Z,0.70
2019-03-15T02:06:00.339Z,0.72
2019-03-15T02:11:03.718Z,0.70
2019-03-15T02:16:06.992Z,0.60
2019-03-15T02:21:09.985Z,0.75
2019-03-15T02:26:12.931Z,0.40
2019-03-15T02:31:16.017Z,0.53
2019-03-15T02:36:19.336Z,0.57
2019-03-15T02:41:22.494Z,0.78
2019-03-15T02:46:25.950Z,2.05
2019-03-15T02:51:29.420Z,0.50
2019-03-15T02:56:32.482Z,0.62
2019-03-15T03:01:35.545Z,0.70
2019-03-15T03:06:38.812Z,0.40
2019-03-15T03:11:41.906Z,0.40
2019-03-15T03:16:46.043Z,0.88
2019-03-15T03:21:49.521Z,0.40
2019-03-15T03:26:52.678Z,0.40
2019-03-15T03:31:55.652Z,0.80
2019-03-15T03:36:59.227Z,0.40
2019-03-15T03:42:02.962Z,0.78
2019-03-15T03:47:05.995Z,0.90
2019-03-15T03:52:08.974Z,2.15
2019-03-15T03:57:11.922Z,0.60
2019-03-15T04:02:15.165Z,0.40
2019-03-15T04:07:18.517Z,0.40
2019-03-15T04:12:22.154Z,0.72
2019-03-15T04:17:25.454Z,0.60
2019-03-15T04:22:28.808Z,0.50
2019-03-15T04:27:32.215Z,0.40
2019-03-15T04:32:35.371Z,0.50
2019-03-15T04:37:38.947Z,0.86
2019-03-15T04:42:42.125Z,0.93
2019-03-15T04:47:45.313Z,1.03
2019-03-15T04:52:48.437Z,0.62
2019-03-15T04:57:51.648Z,0.70
2019-03-15T05:02:54.747Z,0.77
2019-03-15T05:07:57.803Z,0.78
2019-03-15T05:13:00.897Z,0.80
2019-03-15T05:18:03.885Z,1.52
2019-03-15T05:23:07.090Z,1.30
2019-03-15T05:28:10.129Z,2.20
2019-03-15T05:33:13.250Z,1.42
2019-03-15T05:38:16.214Z,1.70
2019-03-15T05:43:19.223Z,2.17
2019-03-15T05:48:22.187Z,2.77
2019-03-15T05:53:25.296Z,3.47
2019-03-15T05:58:28.441Z,2.80
2019-03-15T06:03:31.526Z,3.15
2019-03-15T06:08:34.919Z,4.97
2019-03-15T06:13:37.879Z,2.50
2019-03-15T06:18:40.964Z,4.80
2019-03-15T06:23:44.014Z,5.12
2019-03-15T06:28:47.103Z,4.80
2019-03-15T06:33:50.179Z,3.30
2019-03-15T06:38:53.244Z,5.10
2019-03-15T06:43:56.344Z,6.40
2019-03-15T06:48:59.360Z,4.55
2019-03-15T06:54:11.280Z,4.12
2019-03-15T06:59:07.322Z,5.58
2019-03-15T07:04:10.397Z,3.50
2019-03-15T07:09:13.485Z,7.22
2019-03-15T07:14:16.857Z,5.03
2019-03-15T07:19:26.449Z,5.92
2019-03-15T07:24:25.806Z,6.78
2019-03-15T07:29:28.985Z,5.95
2019-03-15T07:34:32.034Z,6.70
2019-03-15T07:39:35.034Z,3.60
2019-03-15T07:44:38.145Z,6.20
2019-03-15T07:49:41.420Z,4.75
2019-03-15T07:54:44.644Z,4.33
2019-03-15T07:59:48.006Z,8.70
2019-03-15T08:04:51.071Z,6.95
2019-03-15T08:09:54.193Z,3.37
2019-03-15T08:14:57.291Z,4.30
2019-03-15T08:20:00.528Z,11.33
2019-03-15T08:25:04.729Z,7.47
2019-03-15T08:30:10.532Z,5.12
2019-03-15T08:35:13.837Z,6.13
2019-03-15T08:40:16.920Z,5.12
2019-03-15T08:45:20.065Z,8.25
2019-03-15T08:50:24.568Z,7.37
2019-03-15T08:55:27.944Z,5.25
2019-03-15T09:00:31.118Z,4.15
2019-03-15T09:05:34.216Z,6.75
2019-03-15T09:10:37.303Z,2.50
2019-03-15T09:15:40.426Z,2.35
2019-03-15T09:20:43.417Z,2.50
2019-03-15T09:25:46.809Z,4.30
2019-03-15T09:30:49.918Z,7.17
2019-03-15T09:35:53.126Z,4.67
2019-03-15T09:40:56.405Z,4.22
2019-03-15T09:45:59.547Z,6.08
2019-03-15T09:51:02.755Z,3.30
2019-03-15T09:56:05.992Z,5.35
2019-03-15T10:01:09.339Z,3.20
2019-03-15T10:06:16.576Z,5.35
2019-03-15T10:11:17.833Z,5.87
2019-03-15T10:16:21.102Z,6.00
2019-03-15T10:21:24.394Z,7.22
2019-03-15T10:26:27.549Z,7.12
2019-03-15T10:31:30.579Z,6.37
2019-03-15T10:36:34.751Z,3.77
2019-03-15T10:41:38.420Z,6.87
2019-03-15T10:46:41.740Z,2.00
2019-03-15T10:51:44.756Z,5.45
2019-03-15T10:56:47.936Z,3.10
2019-03-15T11:01:51.420Z,5.75
2019-03-15T11:06:54.820Z,3.65
2019-03-15T11:11:57.996Z,4.37
2019-03-15T11:17:01.587Z,2.37
2019-03-15T11:22:05.038Z,2.25
2019-03-15T11:27:08.075Z,4.45
2019-03-15T11:32:11.099Z,7.78
2019-03-15T11:37:14.286Z,5.17
2019-03-15T11:42:17.760Z,5.42
2019-03-15T11:47:21.084Z,5.28
2019-03-15T11:52:24.421Z,2.00
2019-03-15T11:57:27.526Z,4.53
2019-03-15T12:02:30.584Z,6.40
2019-03-15T12:07:34.010Z,5.43
2019-03-15T12:12:37.161Z,7.17
2019-03-15T12:17:40.392Z,4.73
2019-03-15T12:22:44.273Z,6.17
2019-03-15T12:27:47.327Z,4.27
2019-03-15T12:32:50.277Z,3.15
2019-03-15T12:37:53.693Z,3.73
2019-03-15T12:42:57.150Z,5.00
2019-03-15T12:48:00.249Z,5.12
2019-03-15T12:53:03.572Z,6.22
2019-03-15T12:58:06.766Z,5.47
2019-03-15T13:03:10.220Z,5.55
2019-03-15T13:08:13.504Z,3.50
2019-03-15T13:13:16.627Z,5.00
2019-03-15T13:18:20.130Z,5.03
2019-03-15T13:23:23.322Z,4.37
2019-03-15T13:28:26.535Z,6.33
2019-03-15T13:33:29.655Z,5.12
2019-03-15T13:38:32.645Z,4.30
2019-03-15T13:43:35.631Z,3.85
2019-03-15T13:48:38.787Z,5.33
2019-03-15T13:53:42.125Z,4.45
2019-03-15T13:58:56.621Z,4.28
2019-03-15T14:03:50.348Z,5.78
2019-03-15T14:08:53.473Z,4.08
2019-03-15T14:13:56.991Z,2.30
2019-03-15T14:24:09.787Z,9.75
2019-03-15T14:29:12.915Z,8.45
2019-03-15T14:34:15.992Z,4.60
2019-03-15T14:39:19.419Z,6.60
2019-03-15T14:44:22.683Z,12.13
2019-03-15T14:49:25.762Z,6.00
2019-03-15T14:54:28.938Z,9.68
2019-03-15T14:59:32.226Z,5.65
2019-03-15T15:04:35.184Z,9.85
2019-03-15T15:09:38.545Z,6.92
2019-03-15T15:14:41.638Z,7.08
2019-03-15T15:19:44.723Z,5.33
2019-03-15T15:24:47.954Z,5.75
2019-03-15T15:29:51.074Z,5.70
2019-03-15T15:34:54.174Z,7.35
2019-03-15T15:40:00.027Z,6.12
2019-03-15T15:45:02.440Z,8.40
2019-03-15T15:50:06.659Z,4.85
2019-03-15T15:55:09.990Z,6.55
2019-03-15T16:00:13.405Z,7.45
2019-03-15T16:05:16.620Z,5.15
2019-03-15T16:10:19.719Z,5.92
2019-03-15T16:15:22.847Z,7.45
2019-03-15T16:20:26.252Z,5.90
2019-03-15T16:25:29.411Z,3.58
2019-03-15T16:30:32.398Z,4.35
2019-03-15T16:35:35.580Z,8.43
2019-03-15T16:40:38.886Z,8.48
2019-03-15T16:45:42.005Z,8.50
2019-03-15T16:50:45.611Z,7.00
2019-03-15T16:55:48.925Z,10.20
2019-03-15T17:00:52.047Z,6.75
2019-03-15T17:05:55.473Z,5.33
2019-03-15T17:10:58.883Z,11.05
2019-03-15T17:16:02.104Z,10.45
2019-03-15T17:21:05.503Z,9.90
2019-03-15T17:26:08.798Z,7.80
2019-03-15T17:31:12.039Z,13.93
2019-03-15T17:36:15.070Z,8.95
2019-03-15T17:41:18.142Z,8.55
2019-03-15T17:46:21.558Z,12.50
2019-03-15T17:51:24.778Z,13.78
2019-03-15T17:56:28.230Z,10.50
2019-03-15T18:01:31.433Z,15.63
2019-03-15T18:06:34.912Z,8.48
2019-03-15T18:11:38.016Z,11.15
2019-03-15T18:16:41.200Z,10.90
2019-03-15T18:21:44.333Z,11.78
2019-03-15T18:26:47.640Z,9.43
2019-03-15T18:31:50.732Z,9.30
2019-03-15T18:36:53.833Z,13.30
2019-03-15T18:41:56.820Z,9.53
2019-03-15T18:46:59.850Z,8.83
2019-03-15T18:52:03.004Z,10.95
2019-03-15T18:57:06.534Z,8.78
2019-03-15T19:02:09.555Z,8.40
2019-03-15T19:07:14.165Z,9.95
2019-03-15T19:12:17.366Z,9.10
2019-03-15T19:17:20.751Z,12.37
2019-03-15T19:22:24.151Z,11.88
2019-03-15T19:27:27.278Z,10.47
2019-03-15T19:32:33.333Z,13.53
2019-03-15T19:37:35.306Z,12.37
2019-03-15T19:42:38.817Z,9.47
2019-03-15T19:47:41.972Z,10.10
2019-03-15T19:52:45.048Z,12.37
2019-03-15T19:57:48.212Z,14.55
2019-03-15T20:02:51.429Z,9.73
2019-03-15T20:07:54.363Z,8.38
2019-03-15T20:12:57.618Z,14.23
2019-03-15T20:18:00.649Z,11.70
2019-03-15T20:23:03.719Z,12.37
2019-03-15T20:28:06.724Z,12.43
2019-03-15T20:33:09.946Z,8.93
2019-03-15T20:38:13.173Z,11.63
2019-03-15T20:43:16.113Z,10.48
2019-03-15T20:48:19.375Z,10.75
2019-03-15T20:53:22.592Z,8.58
2019-03-15T20:58:25.574Z,5.58
2019-03-15T21:03:28.623Z,6.37
2019-03-15T21:08:31.794Z,6.50
2019-03-15T21:13:34.786Z,5.50
2019-03-15T21:18:37.923Z,4.37
2019-03-15T21:23:40.916Z,4.55
2019-03-15T21:28:44.135Z,4.37
2019-03-15T21:33:47.356Z,6.10
2019-03-15T21:38:50.449Z,3.77
2019-03-15T21:43:54.423Z,2.80
2019-03-15T21:48:57.612Z,4.67
2019-03-15T21:54:00.675Z,4.20
2019-03-15T21:59:04.558Z,5.87
2019-03-15T22:04:08.075Z,3.92
2019-03-15T22:09:11.250Z,4.33
2019-03-15T22:14:14.495Z,3.80
2019-03-15T22:19:17.911Z,3.55
2019-03-15T22:24:21.002Z,4.05
2019-03-15T22:29:24.092Z,3.37
2019-03-15T22:34:27.528Z,3.22
2019-03-15T22:39:30.847Z,4.42
2019-03-15T22:44:34.347Z,5.20
2019-03-15T22:49:37.543Z,4.65
2019-03-15T22:54:40.968Z,5.78
2019-03-15T22:59:44.060Z,7.10
2019-03-15T23:04:47.062Z,4.45
2019-03-15T23:09:50.147Z,4.60
2019-03-15T23:14:53.134Z,3.92
2019-03-15T23:19:56.399Z,2.62
2019-03-15T23:24:59.367Z,8.63
2019-03-15T23:30:02.786Z,4.60
2019-03-15T23:35:06.273Z,3.85
2019-03-15T23:40:09.734Z,4.28
2019-03-15T23:45:13.051Z,4.10
2019-03-15T23:50:16.250Z,4.67
2019-03-15T23:55:19.499Z,3.47
